Time;durP1;ratioP1;P1;durP2;ratioP2;P2;SDS_P1;SDS_P2;PMS_P1;PMS_P2;Temp;Humidity;BMP_temperature;BMP_pressure;BME280_temperature;BME280_humidity;BME280_pressure;Samples;Min_cycle;Max_cycle;Signal;HPM_P1;HPM_P2
2023/01/10 00:00:14;;;;;;;2.20;1.20;;;;;;;;;;519940;28;1279;-70
2023/01/10 00:00:33;;;;;;;2.43;1.20;;;;;;;;;;519516;28;1283;-68
2023/01/10 00:00:49;;;;;;;2.35;1.25;;;;;;;;;;519072;28;1323;-70
2023/01/10 00:01:06;;;;;;;1.75;1.20;;;;;;;;;;521634;28;1065;-69
2023/01/10 00:01:21;;;;;;;1.52;1.10;;;;;;;;;;520324;28;1348;-69
2023/01/10 00:01:37;;;;;;;1.87;1.10;;;;;;;;;;522499;28;1534;-69
2023/01/10 00:01:52;;;;;;;2.30;1.00;;;;;;;;;;525163;28;1275;-69
2023/01/10 00:02:08;;;;;;;1.93;1.00;;;;;;;;;;523944;28;1379;-69
2023/01/10 00:02:23;;;;;;;1.45;1.00;;;;;;;;;;521428;28;1235;-70
2023/01/10 00:02:38;;;;;;;1.63;1.00;;;;;;;;;;524652;28;1409;-70
2023/01/10 00:02:54;;;;;;;1.97;1.20;;;;;;;;;;523614;28;1006;-69
2023/01/10 00:03:10;;;;;;;1.55;1.10;;;;;;;;;;520924;28;1317;-69
2023/01/10 00:03:26;;;;;;;1.95;1.10;;;;;;;;;;521602;28;1022;-68
2023/01/10 00:03:41;;;;;;;2.38;1.20;;;;;;;;;;518608;28;1215;-68
2023/01/10 00:03:56;;;;;;;2.20;1.13;;;;;;;;;;520504;28;1113;-69
2023/01/10 00:04:12;;;;;;;2.00;1.10;;;;;;;;;;520265;28;1244;-69
2023/01/10 00:04:28;;;;;;;1.77;1.13;;;;;;;;;;521644;28;1185;-70
2023/01/10 00:04:44;;;;;;;1.50;1.08;;;;;;;;;;517485;28;1453;-65
2023/01/10 00:04:59;;;;;;;2.30;1.10;;;;;;;;;;520072;28;1191;-65
2023/01/10 00:05:15;;;;;;;2.30;1.13;;;;;;;;;;519771;28;1171;-65
2023/01/10 00:05:31;;;;;;;2.50;1.10;;;;;;;;;;520770;28;1425;-64
2023/01/10 00:05:46;;;;;;;2.53;1.10;;;;;;;;;;521647;28;1041;-65
2023/01/10 00:06:01;;;;;;;1.73;1.10;;;;;;;;;;520727;28;1212;-65
2023/01/10 00:06:16;;;;;;;2.67;1.20;;;;;;;;;;522214;28;1334;-65
2023/01/10 00:06:32;;;;;;;2.27;1.10;;;;;;;;;;523767;28;1168;-65
2023/01/10 00:06:47;;;;;;;1.53;1.00;;;;;;;;;;523857;28;1208;-65
2023/01/10 00:07:02;;;;;;;2.03;1.00;;;;;;;;;;523496;28;1285;-65
2023/01/10 00:07:18;;;;;;;2.25;1.00;;;;;;;;;;521486;28;1167;-65
2023/01/10 00:07:33;;;;;;;1.77;0.93;;;;;;;;;;521502;28;1209;-65
2023/01/10 00:07:48;;;;;;;2.20;1.00;;;;;;;;;;519695;28;1296;-65
2023/01/10 00:08:05;;;;;;;2.25;1.05;;;;;;;;;;519805;28;1320;-65
2023/01/10 00:08:20;;;;;;;1.70;1.02;;;;;;;;;;520602;28;999;-64
2023/01/10 00:08:36;;;;;;;1.63;1.00;;;;;;;;;;521635;28;1003;-64
2023/01/10 00:08:51;;;;;;;1.63;1.00;;;;;;;;;;523561;28;1102;-65
2023/01/10 00:09:09;;;;;;;1.83;0.90;;;;;;;;;;522447;28;1327;-65
2023/01/10 00:09:24;;;;;;;1.70;0.88;;;;;;;;;;525268;28;1028;-65
2023/01/10 00:09:39;;;;;;;1.57;0.90;;;;;;;;;;522088;28;1214;-65
2023/01/10 00:09:54;;;;;;;1.45;0.90;;;;;;;;;;524049;28;1231;-65
2023/01/10 00:10:11;;;;;;;1.70;0.80;;;;;;;;;;525299;28;955;-65
2023/01/10 00:10:26;;;;;;;1.73;0.80;;;;;;;;;;525910;28;1030;-65
2023/01/10 00:10:42;;;;;;;1.70;0.80;;;;;;;;;;520182;28;1220;-65
2023/01/10 00:10:57;;;;;;;1.87;0.80;;;;;;;;;;524032;28;1109;-64
2023/01/10 00:13:28;;;;;;;1.50;0.80;;;;;;;;;;526592;27;1100;-65
2023/01/10 00:13:44;;;;;;;2.20;0.80;;;;;;;;;;526095;28;1416;-65
2023/01/10 00:13:59;;;;;;;2.07;0.80;;;;;;;;;;525021;28;1671;-65
2023/01/10 00:14:14;;;;;;;1.30;0.70;;;;;;;;;;525870;27;1269;-65
2023/01/10 00:14:32;;;;;;;1.30;0.80;;;;;;;;;;524015;28;1191;-66
2023/01/10 00:14:47;;;;;;;2.10;0.77;;;;;;;;;;524014;28;1711;-65
2023/01/10 00:15:03;;;;;;;1.13;0.70;;;;;;;;;;524177;28;1144;-65
2023/01/10 00:15:18;;;;;;;1.40;0.77;;;;;;;;;;521538;28;1226;-65
2023/01/10 00:15:34;;;;;;;1.45;0.77;;;;;;;;;;521937;28;979;-65
2023/01/10 00:15:54;;;;;;;1.17;0.70;;;;;;;;;;522872;28;1529;-65
2023/01/10 00:16:10;;;;;;;1.85;0.70;;;;;;;;;;523086;28;1269;-65
2023/01/10 00:16:25;;;;;;;2.40;0.70;;;;;;;;;;521501;28;1211;-64
2023/01/10 00:16:41;;;;;;;1.93;0.60;;;;;;;;;;519882;28;1373;-64
2023/01/10 00:16:56;;;;;;;1.38;0.60;;;;;;;;;;519491;28;1393;-65
2023/01/10 00:17:12;;;;;;;1.20;0.60;;;;;;;;;;520579;28;1990;-64
2023/01/10 00:17:27;;;;;;;1.15;0.70;;;;;;;;;;519429;28;1262;-64
2023/01/10 00:17:42;;;;;;;1.40;0.70;;;;;;;;;;519135;28;1297;-64
2023/01/10 00:17:57;;;;;;;1.40;0.70;;;;;;;;;;519738;28;1379;-64
2023/01/10 00:18:13;;;;;;;1.23;0.70;;;;;;;;;;519331;28;1210;-65
2023/01/10 00:18:28;;;;;;;1.35;0.70;;;;;;;;;;521075;28;1201;-65
2023/01/10 00:18:43;;;;;;;1.43;0.70;;;;;;;;;;521212;28;1283;-65
2023/01/10 00:18:59;;;;;;;1.23;0.70;;;;;;;;;;521103;28;1180;-64
2023/01/10 00:19:14;;;;;;;1.05;0.70;;;;;;;;;;518377;28;1226;-64
2023/01/10 00:19:30;;;;;;;1.23;0.70;;;;;;;;;;520750;28;1102;-65
2023/01/10 00:19:45;;;;;;;1.40;0.60;;;;;;;;;;520159;28;1176;-64
2023/01/10 00:20:01;;;;;;;1.23;0.50;;;;;;;;;;519449;28;1336;-65
2023/01/10 00:20:16;;;;;;;1.35;0.50;;;;;;;;;;516956;28;1419;-65
2023/01/10 00:20:32;;;;;;;1.20;0.53;;;;;;;;;;519386;28;1225;-65
2023/01/10 00:20:50;;;;;;;0.95;0.60;;;;;;;;;;522092;28;1090;-65
2023/01/10 00:21:08;;;;;;;1.10;0.60;;;;;;;;;;524397;28;1134;-65
2023/01/10 00:21:23;;;;;;;1.23;0.65;;;;;;;;;;522707;28;1230;-65
2023/01/10 00:21:38;;;;;;;1.00;0.70;;;;;;;;;;524378;28;1321;-65
2023/01/10 00:21:56;;;;;;;1.40;0.65;;;;;;;;;;525252;28;1396;-65
2023/01/10 00:22:11;;;;;;;1.88;0.70;;;;;;;;;;523330;28;1251;-64
2023/01/10 00:22:26;;;;;;;1.17;0.60;;;;;;;;;;523316;28;1433;-65
2023/01/10 00:22:43;;;;;;;1.80;0.63;;;;;;;;;;521827;28;1350;-65
2023/01/10 00:22:59;;;;;;;2.40;0.68;;;;;;;;;;520894;28;1164;-65
2023/01/10 00:23:16;;;;;;;2.13;0.60;;;;;;;;;;522858;28;1140;-65
2023/01/10 00:23:31;;;;;;;1.80;0.60;;;;;;;;;;521717;28;1400;-65
2023/01/10 00:23:47;;;;;;;1.70;0.60;;;;;;;;;;520991;28;1193;-65
2023/01/10 00:24:15;;;;;;;0.95;0.60;;;;;;;;;;522227;28;1069;-65
2023/01/10 00:24:30;;;;;;;2.10;0.57;;;;;;;;;;523650;28;1050;-65
2023/01/10 00:24:46;;;;;;;2.22;0.60;;;;;;;;;;526382;27;1176;-66
2023/01/10 00:25:01;;;;;;;1.33;0.60;;;;;;;;;;527517;27;1155;-65
2023/01/10 00:25:20;;;;;;;1.37;0.60;;;;;;;;;;526076;28;1101;-65
2023/01/10 00:25:35;;;;;;;1.65;0.63;;;;;;;;;;526063;27;1082;-65
2023/01/10 00:25:51;;;;;;;1.60;0.60;;;;;;;;;;527068;27;1141;-65
2023/01/10 00:26:06;;;;;;;1.33;0.53;;;;;;;;;;530148;27;1139;-64
2023/01/10 00:26:21;;;;;;;1.30;0.60;;;;;;;;;;524932;28;1234;-64
2023/01/10 00:26:37;;;;;;;1.40;0.60;;;;;;;;;;524257;28;1219;-64
2023/01/10 00:26:53;;;;;;;1.30;0.53;;;;;;;;;;524918;28;1322;-64
2023/01/10 00:27:09;;;;;;;1.58;0.50;;;;;;;;;;524143;28;1290;-64
2023/01/10 00:27:25;;;;;;;1.27;0.50;;;;;;;;;;523235;28;914;-65
2023/01/10 00:27:40;;;;;;;1.60;0.50;;;;;;;;;;523579;28;1229;-64
2023/01/10 00:28:26;;;;;;;1.23;0.50;;;;;;;;;;522837;28;1099;-64
2023/01/10 00:28:42;;;;;;;0.87;0.50;;;;;;;;;;525826;28;1014;-65
2023/01/10 00:28:57;;;;;;;1.17;0.60;;;;;;;;;;525544;27;1361;-65
2023/01/10 00:29:12;;;;;;;1.77;0.70;;;;;;;;;;526661;28;1077;-64
2023/01/10 00:29:32;;;;;;;1.57;0.60;;;;;;;;;;522953;28;1199;-65
2023/01/10 00:29:51;;;;;;;2.70;0.63;;;;;;;;;;525625;28;962;-65
2023/01/10 00:30:14;;;;;;;1.90;0.60;;;;;;;;;;524159;28;1454;-65
2023/01/10 00:30:29;;;;;;;1.30;0.60;;;;;;;;;;527350;27;1045;-65
2023/01/10 00:31:00;;;;;;;1.67;0.60;;;;;;;;;;525164;28;1120;-65
2023/01/10 00:31:15;;;;;;;0.90;0.50;;;;;;;;;;523924;28;1397;-65
2023/01/10 00:31:30;;;;;;;0.60;0.40;;;;;;;;;;523574;28;1623;-65
2023/01/10 00:31:46;;;;;;;0.57;0.40;;;;;;;;;;525415;28;1135;-66
2023/01/10 00:32:02;;;;;;;0.77;0.50;;;;;;;;;;524874;28;1114;-65
2023/01/10 00:32:19;;;;;;;1.00;0.60;;;;;;;;;;525138;28;1082;-64
2023/01/10 00:32:34;;;;;;;0.90;0.50;;;;;;;;;;525147;28;1140;-65
2023/01/10 00:32:49;;;;;;;0.85;0.50;;;;;;;;;;524031;28;1473;-65
2023/01/10 00:33:05;;;;;;;0.90;0.50;;;;;;;;;;526011;28;1330;-64
2023/01/10 00:33:21;;;;;;;1.15;0.50;;;;;;;;;;527843;27;1362;-64
2023/01/10 00:33:37;;;;;;;1.30;0.47;;;;;;;;;;526192;28;1061;-64
2023/01/10 00:33:52;;;;;;;1.38;0.40;;;;;;;;;;525322;28;1289;-64
2023/01/10 00:34:07;;;;;;;1.00;0.43;;;;;;;;;;524972;27;1129;-65
2023/01/10 00:34:23;;;;;;;1.07;0.50;;;;;;;;;;526252;28;1086;-64
2023/01/10 00:34:38;;;;;;;1.80;0.60;;;;;;;;;;526127;28;1100;-64
2023/01/10 00:34:53;;;;;;;2.20;0.60;;;;;;;;;;524365;28;1298;-64
2023/01/10 00:35:10;;;;;;;1.30;0.50;;;;;;;;;;526486;27;1129;-64
2023/01/10 00:35:25;;;;;;;1.10;0.60;;;;;;;;;;528547;27;1276;-64
2023/01/10 00:35:41;;;;;;;1.03;0.50;;;;;;;;;;527914;27;1009;-65
2023/01/10 00:35:57;;;;;;;0.70;0.40;;;;;;;;;;528482;27;1148;-64
2023/01/10 00:36:13;;;;;;;1.60;0.40;;;;;;;;;;527700;27;1132;-64
2023/01/10 00:36:28;;;;;;;1.67;0.40;;;;;;;;;;528393;27;1232;-65
2023/01/10 00:36:46;;;;;;;1.10;0.50;;;;;;;;;;529465;27;1143;-64
2023/01/10 00:37:01;;;;;;;1.02;0.40;;;;;;;;;;527823;27;1106;-64
2023/01/10 00:37:17;;;;;;;0.50;0.40;;;;;;;;;;526058;27;1943;-64
2023/01/10 00:37:32;;;;;;;0.40;0.40;;;;;;;;;;522656;28;1305;-64
2023/01/10 00:37:47;;;;;;;1.57;0.50;;;;;;;;;;523115;28;1225;-64
2023/01/10 00:38:05;;;;;;;2.10;0.50;;;;;;;;;;523338;28;974;-64
2023/01/10 00:38:20;;;;;;;0.77;0.40;;;;;;;;;;523464;28;1142;-64
2023/01/10 00:38:36;;;;;;;0.80;0.30;;;;;;;;;;521883;28;1344;-64
2023/01/10 00:38:51;;;;;;;1.17;0.40;;;;;;;;;;522208;28;1278;-64
2023/01/10 00:39:09;;;;;;;0.90;0.40;;;;;;;;;;520381;28;1519;-64
2023/01/10 00:39:26;;;;;;;1.15;0.40;;;;;;;;;;521584;28;1052;-64
2023/01/10 00:39:41;;;;;;;1.58;0.50;;;;;;;;;;522355;28;1275;-64
2023/01/10 00:39:57;;;;;;;0.95;0.50;;;;;;;;;;522816;28;1066;-64
2023/01/10 00:40:13;;;;;;;0.82;0.50;;;;;;;;;;521462;28;1259;-64
2023/01/10 00:40:28;;;;;;;0.87;0.50;;;;;;;;;;523092;28;1106;-64
2023/01/10 00:40:44;;;;;;;0.90;0.43;;;;;;;;;;520981;28;1273;-64
2023/01/10 00:41:00;;;;;;;0.88;0.50;;;;;;;;;;522112;28;1205;-64
2023/01/10 00:44:10;;;;;;;1.05;0.40;;;;;;;;;;530037;27;1061;-64
2023/01/10 00:44:28;;;;;;;0.93;0.40;;;;;;;;;;527843;27;1375;-64
2023/01/10 00:44:45;;;;;;;0.80;0.40;;;;;;;;;;525090;27;1607;-64
2023/01/10 00:45:00;;;;;;;1.38;0.40;;;;;;;;;;524382;28;1061;-64
2023/01/10 00:45:18;;;;;;;1.50;0.50;;;;;;;;;;525953;28;1226;-64
2023/01/10 00:45:33;;;;;;;0.90;0.45;;;;;;;;;;525409;27;1129;-64
2023/01/10 00:45:49;;;;;;;0.87;0.43;;;;;;;;;;525203;27;1018;-64
2023/01/10 00:46:04;;;;;;;1.30;0.43;;;;;;;;;;526395;28;1259;-64
2023/01/10 00:46:19;;;;;;;1.00;0.40;;;;;;;;;;525266;28;1231;-64
2023/01/10 00:46:35;;;;;;;0.93;0.40;;;;;;;;;;524429;28;1219;-64
2023/01/10 00:46:51;;;;;;;0.90;0.40;;;;;;;;;;525080;28;1366;-64
2023/01/10 00:47:06;;;;;;;1.20;0.50;;;;;;;;;;523276;28;1223;-64
2023/01/10 00:47:22;;;;;;;1.13;0.50;;;;;;;;;;525507;28;1244;-64
2023/01/10 00:47:37;;;;;;;0.80;0.40;;;;;;;;;;526089;28;1288;-64
2023/01/10 00:47:52;;;;;;;1.10;0.50;;;;;;;;;;522249;28;1186;-64
2023/01/10 00:48:07;;;;;;;2.00;0.60;;;;;;;;;;521027;28;1429;-65
2023/01/10 00:48:23;;;;;;;1.87;0.50;;;;;;;;;;518218;28;1228;-65
2023/01/10 00:48:39;;;;;;;1.13;0.47;;;;;;;;;;520410;28;1117;-64
2023/01/10 00:48:56;;;;;;;1.13;0.50;;;;;;;;;;519246;28;1169;-63
2023/01/10 00:49:14;;;;;;;0.95;0.40;;;;;;;;;;517176;28;1437;-64
2023/01/10 00:49:29;;;;;;;1.00;0.40;;;;;;;;;;516131;28;1559;-64
2023/01/10 00:49:44;;;;;;;0.80;0.40;;;;;;;;;;516600;28;1092;-64
2023/01/10 00:49:59;;;;;;;0.70;0.40;;;;;;;;;;518127;28;1122;-64
2023/01/10 00:50:15;;;;;;;0.60;0.33;;;;;;;;;;518649;28;1087;-64
2023/01/10 00:50:31;;;;;;;0.65;0.40;;;;;;;;;;520656;28;1118;-64
2023/01/10 00:50:46;;;;;;;0.50;0.32;;;;;;;;;;520768;28;1207;-65
2023/01/10 00:51:02;;;;;;;0.50;0.40;;;;;;;;;;521768;28;1082;-65
2023/01/10 00:51:17;;;;;;;1.02;0.40;;;;;;;;;;522109;28;1557;-64
2023/01/10 00:51:33;;;;;;;1.17;0.32;;;;;;;;;;521795;28;1244;-64
2023/01/10 00:51:49;;;;;;;0.82;0.40;;;;;;;;;;522201;28;1538;-64
2023/01/10 00:52:04;;;;;;;0.53;0.40;;;;;;;;;;520761;28;1340;-64
2023/01/10 00:52:19;;;;;;;1.47;0.40;;;;;;;;;;519305;28;1472;-64
2023/01/10 00:52:35;;;;;;;1.80;0.45;;;;;;;;;;519887;28;1126;-65
2023/01/10 00:52:50;;;;;;;1.50;0.40;;;;;;;;;;519440;28;1268;-65
2023/01/10 00:53:06;;;;;;;1.00;0.33;;;;;;;;;;520513;28;1327;-64
2023/01/10 00:53:21;;;;;;;0.40;0.30;;;;;;;;;;519450;28;1236;-64
2023/01/10 00:53:37;;;;;;;0.65;0.30;;;;;;;;;;519874;28;1014;-65
2023/01/10 00:53:52;;;;;;;0.77;0.40;;;;;;;;;;519422;28;1006;-64
2023/01/10 00:54:12;;;;;;;1.00;0.47;;;;;;;;;;519343;28;1239;-64
2023/01/10 00:54:27;;;;;;;0.93;0.40;;;;;;;;;;520252;28;1138;-64
2023/01/10 00:54:42;;;;;;;0.40;0.33;;;;;;;;;;520497;28;1130;-65
2023/01/10 00:54:57;;;;;;;0.73;0.40;;;;;;;;;;522417;28;1354;-65
2023/01/10 00:55:13;;;;;;;1.17;0.40;;;;;;;;;;521004;28;1293;-64
2023/01/10 00:55:28;;;;;;;0.97;0.40;;;;;;;;;;520752;28;1199;-64
2023/01/10 00:55:43;;;;;;;0.60;0.30;;;;;;;;;;521767;28;1133;-64
2023/01/10 00:55:59;;;;;;;0.82;0.40;;;;;;;;;;520024;28;1229;-65
2023/01/10 00:56:14;;;;;;;1.20;0.50;;;;;;;;;;521080;28;1107;-64
2023/01/10 00:56:29;;;;;;;1.17;0.53;;;;;;;;;;520442;28;1141;-65
2023/01/10 00:56:44;;;;;;;1.23;0.60;;;;;;;;;;522719;28;1443;-64
2023/01/10 00:57:00;;;;;;;1.60;0.50;;;;;;;;;;521655;28;1153;-64
2023/01/10 00:57:15;;;;;;;1.93;0.47;;;;;;;;;;522863;28;1971;-64
2023/01/10 00:57:30;;;;;;;1.70;0.40;;;;;;;;;;525207;28;1128;-65
2023/01/10 00:57:46;;;;;;;1.37;0.40;;;;;;;;;;521224;28;1418;-65
2023/01/10 00:58:01;;;;;;;1.30;0.50;;;;;;;;;;523281;28;982;-65
2023/01/10 00:58:17;;;;;;;1.00;0.50;;;;;;;;;;523534;28;1217;-64
2023/01/10 00:58:32;;;;;;;0.70;0.50;;;;;;;;;;522127;28;1304;-64
2023/01/10 00:58:48;;;;;;;1.00;0.45;;;;;;;;;;524210;28;1149;-65
2023/01/10 00:59:04;;;;;;;1.27;0.50;;;;;;;;;;521193;28;1177;-64
2023/01/10 00:59:20;;;;;;;1.10;0.50;;;;;;;;;;521869;28;1118;-64
2023/01/10 00:59:35;;;;;;;0.73;0.43;;;;;;;;;;522179;28;1294;-64
2023/01/10 00:59:50;;;;;;;0.90;0.50;;;;;;;;;;522362;28;1239;-64
2023/01/10 01:00:08;;;;;;;1.10;0.57;;;;;;;;;;522334;28;1145;-64
2023/01/10 01:00:23;;;;;;;1.00;0.50;;;;;;;;;;523471;28;1333;-64
2023/01/10 01:00:38;;;;;;;0.93;0.50;;;;;;;;;;523326;28;1145;-65
2023/01/10 01:00:54;;;;;;;1.17;0.60;;;;;;;;;;523359;28;1134;-65
2023/01/10 01:01:09;;;;;;;1.13;0.60;;;;;;;;;;523803;28;1267;-65
2023/01/10 01:01:25;;;;;;;1.02;0.60;;;;;;;;;;520167;28;1286;-65
2023/01/10 01:01:40;;;;;;;1.13;0.60;;;;;;;;;;521167;28;1313;-64
2023/01/10 01:01:55;;;;;;;1.05;0.50;;;;;;;;;;522081;28;1449;-64
2023/01/10 01:02:10;;;;;;;0.87;0.50;;;;;;;;;;518863;28;1402;-64
2023/01/10 01:02:26;;;;;;;0.83;0.50;;;;;;;;;;518919;28;1144;-64
2023/01/10 01:02:41;;;;;;;1.40;0.50;;;;;;;;;;516885;28;1237;-64
2023/01/10 01:02:56;;;;;;;1.50;0.57;;;;;;;;;;517402;28;1103;-65
2023/01/10 01:03:12;;;;;;;1.37;0.60;;;;;;;;;;517923;28;1376;-64
2023/01/10 01:03:27;;;;;;;1.73;0.60;;;;;;;;;;518532;28;1251;-65
2023/01/10 01:03:43;;;;;;;1.53;0.53;;;;;;;;;;521582;28;1180;-64
2023/01/10 01:03:58;;;;;;;1.33;0.50;;;;;;;;;;520880;28;1113;-65
2023/01/10 01:04:13;;;;;;;1.80;0.53;;;;;;;;;;524194;27;1180;-64
2023/01/10 01:04:32;;;;;;;1.37;0.60;;;;;;;;;;527874;27;1151;-64
2023/01/10 01:04:48;;;;;;;1.10;0.45;;;;;;;;;;522734;28;1281;-64
2023/01/10 01:05:04;;;;;;;1.58;0.52;;;;;;;;;;523460;28;1119;-64
2023/01/10 01:05:19;;;;;;;1.70;0.60;;;;;;;;;;522298;28;1278;-65
2023/01/10 01:05:44;;;;;;;1.10;0.53;;;;;;;;;;521225;28;1304;-65
2023/01/10 01:06:05;;;;;;;1.00;0.50;;;;;;;;;;521269;28;1126;-65
2023/01/10 01:06:20;;;;;;;1.50;0.55;;;;;;;;;;522351;28;1160;-64
2023/01/10 01:06:35;;;;;;;1.83;0.60;;;;;;;;;;522866;28;1129;-65
2023/01/10 01:06:51;;;;;;;1.57;0.60;;;;;;;;;;524492;28;1094;-64
2023/01/10 01:07:06;;;;;;;1.35;0.70;;;;;;;;;;521656;28;1304;-64
2023/01/10 01:07:21;;;;;;;2.10;0.70;;;;;;;;;;521008;28;1220;-65
2023/01/10 01:07:36;;;;;;;2.13;0.70;;;;;;;;;;523511;28;1268;-64
2023/01/10 01:07:52;;;;;;;1.38;0.70;;;;;;;;;;523015;28;1224;-64
2023/01/10 01:08:08;;;;;;;1.40;0.60;;;;;;;;;;521630;28;1460;-64
2023/01/10 01:08:23;;;;;;;1.48;0.60;;;;;;;;;;520122;28;1412;-64
2023/01/10 01:08:38;;;;;;;1.27;0.60;;;;;;;;;;521959;28;1440;-65
2023/01/10 01:08:54;;;;;;;1.15;0.60;;;;;;;;;;521357;28;1489;-65
2023/01/10 01:09:09;;;;;;;1.43;0.70;;;;;;;;;;522016;28;1104;-64
2023/01/10 01:09:24;;;;;;;1.60;0.70;;;;;;;;;;522011;28;1452;-65
2023/01/10 01:10:25;;;;;;;1.40;0.70;;;;;;;;;;521291;28;1199;-65
2023/01/10 01:10:27;;;;;;;1.42;0.70;;;;;;;;;;523921;28;1089;-64
2023/01/10 01:10:42;;;;;;;1.52;0.70;;;;;;;;;;523829;28;1101;-65
2023/01/10 01:10:58;;;;;;;1.77;0.60;;;;;;;;;;525306;28;1305;-64
2023/01/10 01:11:13;;;;;;;1.27;0.50;;;;;;;;;;521982;28;1202;-64
2023/01/10 01:11:28;;;;;;;1.33;0.60;;;;;;;;;;521306;28;1208;-64
2023/01/10 01:11:44;;;;;;;1.45;0.70;;;;;;;;;;521468;28;1180;-65
2023/01/10 01:11:59;;;;;;;1.70;0.70;;;;;;;;;;521441;28;1169;-65
2023/01/10 01:12:14;;;;;;;1.53;0.60;;;;;;;;;;521432;28;1467;-65
2023/01/10 01:12:29;;;;;;;2.22;0.80;;;;;;;;;;521522;28;1396;-65
2023/01/10 01:12:45;;;;;;;2.87;0.83;;;;;;;;;;521785;28;1021;-65
2023/01/10 01:13:15;;;;;;;2.37;0.80;;;;;;;;;;523006;28;1171;-65
2023/01/10 01:13:30;;;;;;;1.73;0.60;;;;;;;;;;523860;28;1586;-64
2023/01/10 01:13:45;;;;;;;1.70;0.70;;;;;;;;;;525370;28;1240;-64
2023/01/10 01:14:01;;;;;;;1.80;0.70;;;;;;;;;;519539;28;1549;-64
2023/01/10 01:14:16;;;;;;;2.17;0.70;;;;;;;;;;521696;28;1142;-65
2023/01/10 01:14:31;;;;;;;2.10;0.80;;;;;;;;;;522229;28;1023;-64
2023/01/10 01:14:47;;;;;;;2.03;0.90;;;;;;;;;;520764;28;1274;-64
2023/01/10 01:15:02;;;;;;;1.83;0.80;;;;;;;;;;519239;28;1211;-65
2023/01/10 01:15:17;;;;;;;1.23;0.70;;;;;;;;;;519194;28;1335;-64
2023/01/10 01:15:36;;;;;;;1.23;0.80;;;;;;;;;;521636;28;1386;-64
2023/01/10 01:15:51;;;;;;;1.88;0.82;;;;;;;;;;519942;28;1348;-65
2023/01/10 01:16:07;;;;;;;2.40;0.80;;;;;;;;;;521607;28;1336;-65
2023/01/10 01:16:22;;;;;;;2.07;0.70;;;;;;;;;;517951;28;1215;-65
2023/01/10 01:16:37;;;;;;;1.50;0.60;;;;;;;;;;519558;28;1165;-65
2023/01/10 01:16:53;;;;;;;1.77;0.70;;;;;;;;;;516355;28;1380;-64
2023/01/10 01:17:08;;;;;;;1.53;0.80;;;;;;;;;;518907;28;1163;-64
2023/01/10 01:17:23;;;;;;;1.33;0.73;;;;;;;;;;519423;28;1927;-65
2023/01/10 01:17:38;;;;;;;1.77;0.80;;;;;;;;;;516496;28;1366;-64
2023/01/10 01:17:54;;;;;;;1.67;0.73;;;;;;;;;;519535;28;1251;-65
2023/01/10 01:18:12;;;;;;;1.87;0.73;;;;;;;;;;520614;28;1119;-65
2023/01/10 01:18:28;;;;;;;1.98;0.70;;;;;;;;;;518333;28;1139;-64
2023/01/10 01:18:43;;;;;;;1.80;0.80;;;;;;;;;;519102;28;1147;-65
2023/01/10 01:18:58;;;;;;;2.50;0.90;;;;;;;;;;522712;28;1114;-64
2023/01/10 01:19:14;;;;;;;2.70;0.90;;;;;;;;;;522656;28;1371;-65
2023/01/10 01:19:29;;;;;;;1.60;0.80;;;;;;;;;;522399;28;1287;-65
2023/01/10 01:19:44;;;;;;;1.43;0.70;;;;;;;;;;523637;28;1178;-65
2023/01/10 01:20:00;;;;;;;2.33;0.70;;;;;;;;;;521605;28;1199;-64
2023/01/10 01:20:15;;;;;;;2.37;0.80;;;;;;;;;;522622;28;975;-64
2023/01/10 01:20:31;;;;;;;2.77;0.87;;;;;;;;;;520202;28;1210;-64
2023/01/10 01:20:51;;;;;;;2.60;0.90;;;;;;;;;;520501;28;1234;-64
2023/01/10 01:21:07;;;;;;;1.70;0.70;;;;;;;;;;520956;28;1117;-64
2023/01/10 01:21:26;;;;;;;2.22;0.70;;;;;;;;;;522258;28;1457;-64
2023/01/10 01:21:42;;;;;;;2.35;0.80;;;;;;;;;;521423;28;1378;-64
2023/01/10 01:21:57;;;;;;;2.40;0.88;;;;;;;;;;523319;28;1015;-64
2023/01/10 01:22:13;;;;;;;2.93;0.90;;;;;;;;;;525508;28;1405;-65
2023/01/10 01:22:28;;;;;;;2.72;0.90;;;;;;;;;;525121;28;1156;-65
2023/01/10 01:22:44;;;;;;;2.55;0.70;;;;;;;;;;521555;28;1513;-64
2023/01/10 01:22:59;;;;;;;2.47;0.70;;;;;;;;;;522702;28;1114;-64
2023/01/10 01:23:15;;;;;;;1.55;0.77;;;;;;;;;;524069;28;1184;-65
2023/01/10 01:23:33;;;;;;;1.87;0.80;;;;;;;;;;521915;28;1486;-64
2023/01/10 01:23:49;;;;;;;2.22;0.80;;;;;;;;;;520933;28;1040;-65
2023/01/10 01:24:05;;;;;;;2.10;0.90;;;;;;;;;;520545;28;1314;-64
2023/01/10 01:24:21;;;;;;;2.43;0.90;;;;;;;;;;521477;28;1145;-64
2023/01/10 01:24:38;;;;;;;2.42;0.75;;;;;;;;;;523445;28;1168;-65
2023/01/10 01:24:53;;;;;;;1.50;0.70;;;;;;;;;;519543;28;1100;-65
2023/01/10 01:25:08;;;;;;;1.57;0.70;;;;;;;;;;521952;28;1239;-64
2023/01/10 01:25:24;;;;;;;1.80;0.70;;;;;;;;;;520672;28;1255;-65
2023/01/10 01:25:39;;;;;;;1.40;0.60;;;;;;;;;;519213;28;1380;-64
2023/01/10 01:25:56;;;;;;;1.27;0.70;;;;;;;;;;520291;28;1309;-65
2023/01/10 01:26:11;;;;;;;1.50;0.70;;;;;;;;;;520719;28;1277;-64
2023/01/10 01:26:26;;;;;;;1.67;0.70;;;;;;;;;;518921;28;1130;-65
2023/01/10 01:26:42;;;;;;;1.70;0.80;;;;;;;;;;518380;28;1323;-64
2023/01/10 01:26:57;;;;;;;1.43;0.77;;;;;;;;;;519107;28;1258;-64
2023/01/10 01:27:12;;;;;;;1.53;0.63;;;;;;;;;;519057;28;1245;-65
2023/01/10 01:27:27;;;;;;;1.37;0.63;;;;;;;;;;520602;28;1072;-65
2023/01/10 01:27:43;;;;;;;1.73;0.77;;;;;;;;;;519259;28;1314;-65
2023/01/10 01:27:58;;;;;;;2.40;1.00;;;;;;;;;;521125;28;1178;-64
2023/01/10 01:28:13;;;;;;;1.70;0.90;;;;;;;;;;522410;28;1101;-65
2023/01/10 01:28:28;;;;;;;1.38;0.85;;;;;;;;;;519939;28;1288;-65
2023/01/10 01:28:44;;;;;;;2.37;0.97;;;;;;;;;;521960;28;1292;-65
2023/01/10 01:28:59;;;;;;;2.57;0.90;;;;;;;;;;520374;28;1383;-65
2023/01/10 01:29:14;;;;;;;2.33;0.80;;;;;;;;;;521300;28;1286;-65
2023/01/10 01:29:30;;;;;;;2.37;0.90;;;;;;;;;;522434;28;1022;-65
2023/01/10 01:29:46;;;;;;;3.00;0.90;;;;;;;;;;521500;28;1082;-65
2023/01/10 01:30:01;;;;;;;2.90;0.90;;;;;;;;;;522776;28;1196;-65
2023/01/10 01:30:16;;;;;;;2.38;0.90;;;;;;;;;;521106;28;1308;-65
2023/01/10 01:30:32;;;;;;;2.00;0.83;;;;;;;;;;522653;28;1253;-65
2023/01/10 01:30:48;;;;;;;1.43;0.80;;;;;;;;;;521325;28;1186;-65
2023/01/10 01:31:09;;;;;;;1.80;0.80;;;;;;;;;;521084;28;1197;-64
2023/01/10 01:31:25;;;;;;;2.33;0.90;;;;;;;;;;523171;28;1437;-64
2023/01/10 01:31:40;;;;;;;2.47;0.90;;;;;;;;;;520989;28;1235;-65
2023/01/10 01:31:56;;;;;;;1.77;0.80;;;;;;;;;;522005;28;1403;-65
2023/01/10 01:32:11;;;;;;;2.17;0.80;;;;;;;;;;525140;28;1209;-65
2023/01/10 01:32:26;;;;;;;3.60;0.90;;;;;;;;;;522394;28;1373;-65
2023/01/10 01:32:42;;;;;;;3.43;0.90;;;;;;;;;;520850;28;1255;-65
2023/01/10 01:32:58;;;;;;;1.98;0.90;;;;;;;;;;520763;28;1060;-65
2023/01/10 01:33:14;;;;;;;2.00;1.00;;;;;;;;;;520637;28;1337;-64
2023/01/10 01:33:29;;;;;;;2.30;1.10;;;;;;;;;;524135;28;1137;-65
2023/01/10 01:33:45;;;;;;;2.30;1.00;;;;;;;;;;522860;28;1093;-64
2023/01/10 01:34:00;;;;;;;2.53;1.00;;;;;;;;;;522951;28;1082;-64
2023/01/10 01:34:15;;;;;;;2.53;1.10;;;;;;;;;;523220;28;1192;-65
2023/01/10 01:34:31;;;;;;;2.30;1.10;;;;;;;;;;524634;28;1296;-65
2023/01/10 01:34:46;;;;;;;1.75;0.90;;;;;;;;;;523865;28;1022;-65
2023/01/10 01:35:02;;;;;;;1.60;0.90;;;;;;;;;;521534;28;1195;-65
2023/01/10 01:35:17;;;;;;;2.88;1.10;;;;;;;;;;521827;28;1133;-64
2023/01/10 01:35:33;;;;;;;2.77;1.10;;;;;;;;;;522258;28;1177;-66
2023/01/10 01:35:49;;;;;;;1.55;0.90;;;;;;;;;;520824;28;1003;-64
2023/01/10 01:36:09;;;;;;;1.77;0.90;;;;;;;;;;521085;28;1570;-66
2023/01/10 01:36:24;;;;;;;2.47;1.00;;;;;;;;;;518160;28;1307;-65
2023/01/10 01:36:40;;;;;;;2.50;1.03;;;;;;;;;;523476;28;1145;-65
2023/01/10 01:36:57;;;;;;;2.55;1.10;;;;;;;;;;521892;28;1183;-65
2023/01/10 01:37:12;;;;;;;2.70;1.05;;;;;;;;;;521449;28;1131;-64
2023/01/10 01:37:27;;;;;;;3.00;1.10;;;;;;;;;;517206;28;1971;-65
2023/01/10 01:37:43;;;;;;;3.07;1.20;;;;;;;;;;519812;28;1287;-65
2023/01/10 01:37:58;;;;;;;2.90;1.20;;;;;;;;;;519326;28;1132;-65
2023/01/10 01:38:14;;;;;;;2.60;1.13;;;;;;;;;;521053;28;1392;-65
2023/01/10 01:38:30;;;;;;;2.42;1.10;;;;;;;;;;519422;28;1523;-65
2023/01/10 01:38:45;;;;;;;2.80;1.10;;;;;;;;;;521209;28;1257;-66
2023/01/10 01:39:00;;;;;;;3.03;1.20;;;;;;;;;;519069;28;1207;-66
2023/01/10 01:39:16;;;;;;;2.80;1.07;;;;;;;;;;519427;28;1062;-65
2023/01/10 01:39:34;;;;;;;3.28;1.10;;;;;;;;;;520338;28;1311;-64
2023/01/10 01:39:49;;;;;;;3.65;1.20;;;;;;;;;;518986;28;1357;-65
2023/01/10 01:40:06;;;;;;;3.83;1.10;;;;;;;;;;518219;28;1220;-66
2023/01/10 01:40:22;;;;;;;5.00;1.20;;;;;;;;;;518162;28;1154;-65
2023/01/10 01:40:38;;;;;;;3.85;1.20;;;;;;;;;;519132;28;1182;-66
2023/01/10 01:40:53;;;;;;;2.90;1.20;;;;;;;;;;519300;28;1351;-65
2023/01/10 01:41:57;;;;;;;2.97;1.10;;;;;;;;;;525762;28;989;-66
2023/01/10 01:42:39;;;;;;;3.30;1.20;;;;;;;;;;524626;28;1200;-65
2023/01/10 01:42:55;;;;;;;3.80;1.13;;;;;;;;;;521501;28;1133;-65
2023/01/10 01:43:26;;;;;;;3.80;1.20;;;;;;;;;;523097;28;1214;-65
2023/01/10 01:44:03;;;;;;;3.63;1.23;;;;;;;;;;523936;28;1145;-65
2023/01/10 01:44:18;;;;;;;2.58;1.23;;;;;;;;;;522248;28;1813;-65
2023/01/10 01:44:38;;;;;;;3.13;1.30;;;;;;;;;;523098;28;1133;-65
2023/01/10 01:45:08;;;;;;;2.17;1.00;;;;;;;;;;523654;28;1132;-66
2023/01/10 01:45:36;;;;;;;2.78;1.10;;;;;;;;;;522344;28;1057;-65
2023/01/10 01:45:52;;;;;;;3.45;1.10;;;;;;;;;;523634;28;1153;-65
2023/01/10 01:46:08;;;;;;;4.32;1.10;;;;;;;;;;525065;28;1444;-65
2023/01/10 01:46:23;;;;;;;4.37;1.13;;;;;;;;;;522421;28;1243;-65
2023/01/10 01:46:39;;;;;;;3.47;1.20;;;;;;;;;;521292;28;1150;-65
2023/01/10 01:47:03;;;;;;;2.35;1.10;;;;;;;;;;523085;28;1078;-65